Terminal Aerodrome Forecast
Issued by NWS

Home | Current Version | Previous Version | Text Only | Print | Product List | Glossary On
Versions: 1 2 3 4 5 6 7 8 9 10 11 12 13 14 15 16 17 18 19 20 21 22 23 24 25 26 27 28 29 30 31 32 33 34 35 36 37 38 39 40 41
000
FTUS46 KPQR 191314 AAA
TAFONP
TAF AMD
KONP 191314Z 1913/2012 17014KT P6SM -SHRA VCTS SCT015 SCT025CB
      OVC060CB
     FM191700 19012KT P6SM -SHRA SCT035 BKN060
     FM200200 19013G22KT 6SM -RA BR SCT025 BKN040 OVC060
     FM200800 19018G25KT 4SM -RA BR SCT025 BKN050=

USA.gov is the U.S. government's official web portal to all federal, state and local government web resources and services.